Fogelsville, Pennsylvania
Current Conditions -  °F | °C
As of 10:15 AM on Wednesday 22 Oct 2014 (Local Time) from KXLL Reporting Station
Light Rain Light Rain  
Wind Chill: 12°   Ceiling: 1000
Heat Index: 12°   Visibility: 10mi
Dew Point: 10°   Wind: 9mph
Humidity: 88%   Direction: 20°NNE
Pressure: 29.96"   Gusts: NA
Location:  40.58°N, 75.63°W
Report Text: KXLL 221415Z AUTO 02008KT 10SM -RA OVC010 12/10 A2996 RMK AO2 P0001
Loading
Personal Weather Stations






























Interactive Weather Map
Tropical Storm Tracking
New forecast layout! Learn more

10-Day Weather Forecast

Advertisements
Track Severe Weather on mobile